KMZZ/MZZ METAR and TAF weather

Enter ICAO airport designator
Station Type Date Time Source
KMZZ METAR 2020/06/01 15:35 UTC NOAA

KMZZ 011535Z AUTO 00000KT 10SM CLR 19/09 A3031 RMK AO2 T01940090


Station Type Date Time Source
KMZZ Decoded METAR 2020/06/01 15:35 UTC NOAA

Station name not available
Jun 01, 2020 - 11:35 AM EDT / 2020.06.01 1535 UTC
Wind: Calm:0
Visibility: 10 mile(s):0
Sky conditions: clear
Temperature: 66.9 F (19.4 C)
Dew Point: 48.2 F (9.0 C)
Relative Humidity: 50%
Pressure (altimeter): 30.31 in. Hg (1026 hPa)
ob: KMZZ 011535Z AUTO 00000KT 10SM CLR 19/09 A3031 RMK AO2 T01940090
cycle: 15

Station Type Date Time Source
KMZZ TAF UTC NOAA

Error!

Example: see airport list